Time;durP1;ratioP1;P1;durP2;ratioP2;P2;SDS_P1;SDS_P2;PMS_P1;PMS_P2;Temp;Humidity;BMP_temperature;BMP_pressure;BME280_temperature;BME280_humidity;BME280_pressure;Samples;Min_cycle;Max_cycle;Signal;HPM_P1;HPM_P2
2022/01/11 00:01:49;;;;;;;7.82;5.65;;;21.20;54.70;;;;;;5080313;28;20055;-74
2022/01/11 00:04:17;;;;;;;11.20;6.53;;;21.20;55.00;;;;;;5097374;28;20105;-74
2022/01/11 00:06:49;;;;;;;9.70;6.28;;;21.10;54.70;;;;;;5097366;28;20079;-74
2022/01/11 00:09:39;;;;;;;10.45;6.32;;;21.10;54.50;;;;;;5097690;28;20107;-74
2022/01/11 00:12:06;;;;;;;9.68;5.88;;;21.10;54.50;;;;;;5097202;28;20040;-74
2022/01/11 00:14:33;;;;;;;8.27;5.90;;;21.20;54.40;;;;;;5097391;28;20041;-74
2022/01/11 00:16:59;;;;;;;10.07;5.93;;;21.30;54.00;;;;;;5097422;28;20036;-74
2022/01/11 00:19:28;;;;;;;7.13;5.38;;;21.20;54.00;;;;;;5080055;28;20036;-74
2022/01/11 00:21:55;;;;;;;9.65;6.22;;;21.30;54.30;;;;;;5096778;28;20044;-74
2022/01/11 00:24:32;;;;;;;8.20;4.40;;;21.20;54.10;;;;;;5096952;28;20044;-73
2022/01/11 00:27:09;;;;;;;8.57;5.55;;;21.10;54.40;;;;;;5097257;28;20098;-74
2022/01/11 00:29:41;;;;;;;8.55;4.82;;;21.20;54.00;;;;;;5097151;28;20052;-74
2022/01/11 00:32:16;;;;;;;7.80;4.60;;;21.20;54.30;;;;;;5079249;28;20073;-74
2022/01/11 00:34:55;;;;;;;6.78;5.57;;;21.20;54.30;;;;;;5096869;28;20047;-74
2022/01/11 00:37:21;;;;;;;7.55;4.80;;;21.10;54.10;;;;;;5097202;28;20135;-74
2022/01/11 00:39:50;;;;;;;9.98;5.88;;;21.10;54.00;;;;;;5096932;28;20040;-73
2022/01/11 00:42:17;;;;;;;6.05;4.70;;;21.20;53.80;;;;;;5097052;28;20074;-74
2022/01/11 00:44:44;;;;;;;8.57;5.15;;;21.30;53.80;;;;;;5079306;28;20066;-74
2022/01/11 00:47:11;;;;;;;8.02;5.20;;;21.10;53.90;;;;;;5096902;28;20033;-74
2022/01/11 00:49:40;;;;;;;6.35;4.53;;;21.30;53.60;;;;;;5096897;28;20036;-74
2022/01/11 00:52:07;;;;;;;6.63;5.43;;;21.30;53.80;;;;;;5096889;28;20079;-74
2022/01/11 00:54:33;;;;;;;8.32;6.07;;;21.20;53.90;;;;;;5096415;28;20044;-74
2022/01/11 00:56:59;;;;;;;5.18;4.18;;;21.20;53.90;;;;;;5096797;28;20051;-74
2022/01/11 00:59:25;;;;;;;7.20;4.95;;;21.10;54.00;;;;;;5079494;28;20096;-74
2022/01/11 01:01:51;;;;;;;8.20;4.72;;;21.20;53.60;;;;;;5096628;28;20036;-74
2022/01/11 01:04:18;;;;;;;6.57;4.80;;;21.40;53.90;;;;;;5078249;28;20040;-74
2022/01/11 01:06:45;;;;;;;7.72;5.00;;;21.30;53.70;;;;;;5079418;28;20044;-74
2022/01/11 01:09:13;;;;;;;8.18;5.43;;;21.20;53.60;;;;;;5079164;28;20040;-74
2022/01/11 01:11:45;;;;;;;5.85;4.13;;;21.10;53.70;;;;;;5079322;28;20044;-74
2022/01/11 01:14:12;;;;;;;6.60;4.72;;;21.10;53.80;;;;;;5078696;28;20045;-74
2022/01/11 01:16:39;;;;;;;7.20;4.38;;;21.00;53.70;;;;;;5079260;28;20048;-74
2022/01/11 01:19:19;;;;;;;4.35;3.53;;;21.10;53.90;;;;;;5079172;28;20048;-74
2022/01/11 01:21:47;;;;;;;7.22;4.80;;;21.00;53.80;;;;;;5076661;28;20098;-74
2022/01/11 01:24:15;;;;;;;4.80;4.28;;;21.00;53.80;;;;;;5075514;28;20108;-74
2022/01/11 01:26:41;;;;;;;5.68;4.32;;;21.00;53.80;;;;;;5075801;28;20044;-74
2022/01/11 01:29:07;;;;;;;6.40;4.10;;;20.90;53.70;;;;;;5076212;28;20073;-74
2022/01/11 01:31:33;;;;;;;6.45;4.10;;;21.00;54.20;;;;;;5076203;28;20075;-74
2022/01/11 01:34:04;;;;;;;7.68;4.57;;;21.00;53.90;;;;;;5075988;28;20079;-74
2022/01/11 01:36:31;;;;;;;4.43;3.80;;;20.90;53.80;;;;;;5076205;28;20059;-74
2022/01/11 01:38:57;;;;;;;7.43;4.40;;;20.80;53.80;;;;;;5076236;28;20037;-74
2022/01/11 01:41:26;;;;;;;7.10;4.60;;;21.00;54.00;;;;;;5076268;28;20048;-74
2022/01/11 01:43:56;;;;;;;7.07;3.72;;;20.90;53.70;;;;;;5075192;28;20108;-73
2022/01/11 01:46:23;;;;;;;7.10;4.63;;;21.00;53.60;;;;;;5075257;28;20501;-74
2022/01/11 01:48:50;;;;;;;6.50;4.80;;;21.00;53.60;;;;;;5076152;28;20048;-74
2022/01/11 01:51:16;;;;;;;7.85;4.07;;;20.90;53.70;;;;;;5076023;28;20049;-74
2022/01/11 01:53:46;;;;;;;7.07;4.00;;;20.80;53.90;;;;;;5076026;28;20044;-74
2022/01/11 01:56:15;;;;;;;5.88;3.97;;;20.80;53.90;;;;;;5075209;28;20037;-75
2022/01/11 01:58:42;;;;;;;5.35;4.10;;;20.80;54.00;;;;;;5075355;28;20044;-74
2022/01/11 02:01:12;;;;;;;4.65;3.80;;;20.80;54.20;;;;;;5075233;28;20041;-73
2022/01/11 02:03:40;;;;;;;6.70;4.10;;;20.70;54.00;;;;;;5075929;28;20054;-73
2022/01/11 02:06:09;;;;;;;6.05;4.07;;;20.80;53.70;;;;;;5075852;28;20037;-74
2022/01/11 02:08:36;;;;;;;4.88;3.83;;;20.80;53.50;;;;;;5075369;28;20033;-74
2022/01/11 02:11:02;;;;;;;3.70;2.92;;;20.80;53.60;;;;;;5075268;28;20088;-73
2022/01/11 02:13:28;;;;;;;4.50;3.63;;;20.90;53.50;;;;;;5075210;28;20037;-74
2022/01/11 02:15:56;;;;;;;4.70;3.90;;;21.00;53.30;;;;;;5076808;28;20037;-74
2022/01/11 02:18:26;;;;;;;4.22;3.70;;;21.00;53.00;;;;;;5078745;28;20069;-74
2022/01/11 02:20:58;;;;;;;3.95;3.10;;;21.00;53.00;;;;;;5079043;28;20037;-74
2022/01/11 02:23:30;;;;;;;3.05;2.83;;;21.10;53.00;;;;;;5092410;28;20037;-74
2022/01/11 02:25:58;;;;;;;4.82;3.40;;;21.00;52.80;;;;;;5098644;28;20072;-74
2022/01/11 02:28:27;;;;;;;5.93;3.47;;;21.00;52.90;;;;;;5098877;28;20144;-74
2022/01/11 02:30:55;;;;;;;3.80;3.20;;;21.10;52.90;;;;;;5098693;28;20048;-74
2022/01/11 02:33:35;;;;;;;5.00;3.88;;;21.10;53.00;;;;;;5098524;28;20040;-74
2022/01/11 02:36:30;;;;;;;4.57;3.72;;;21.10;52.70;;;;;;5099139;28;20115;-75
2022/01/11 02:38:59;;;;;;;5.78;3.50;;;21.10;52.70;;;;;;5098694;28;20060;-74
2022/01/11 02:41:28;;;;;;;4.97;3.72;;;21.20;52.40;;;;;;5098516;28;20108;-74
2022/01/11 02:43:59;;;;;;;6.65;3.83;;;21.20;52.40;;;;;;5098507;28;20051;-74
2022/01/11 02:46:26;;;;;;;4.35;3.58;;;21.20;52.50;;;;;;5098252;28;20058;-75
2022/01/11 02:48:55;;;;;;;5.40;4.07;;;21.10;52.60;;;;;;5098680;28;20040;-74
2022/01/11 02:51:24;;;;;;;4.80;3.75;;;21.30;52.40;;;;;;5098498;28;20041;-74
2022/01/11 02:53:54;;;;;;;4.70;3.72;;;21.20;52.50;;;;;;5098126;28;20112;-74
2022/01/11 02:56:23;;;;;;;6.20;3.63;;;21.20;52.50;;;;;;5098270;28;20036;-74
2022/01/11 02:58:50;;;;;;;6.00;3.95;;;21.20;52.70;;;;;;5098407;28;20052;-74
2022/01/11 03:01:17;;;;;;;4.70;3.78;;;21.10;52.40;;;;;;5098290;28;20071;-74
2022/01/11 03:03:45;;;;;;;5.47;3.78;;;21.20;52.60;;;;;;5098067;28;20040;-74
2022/01/11 03:06:11;;;;;;;6.78;4.18;;;21.10;52.60;;;;;;5098117;28;20108;-74
2022/01/11 03:08:44;;;;;;;5.95;3.85;;;21.10;52.50;;;;;;5098115;28;20123;-74
2022/01/11 03:11:18;;;;;;;5.55;4.20;;;21.00;52.50;;;;;;5098184;28;20070;-74
2022/01/11 03:13:47;;;;;;;5.05;3.42;;;21.10;52.60;;;;;;5097816;28;20036;-74
2022/01/11 03:16:16;;;;;;;6.65;4.68;;;21.00;52.60;;;;;;5097930;28;20047;-74
2022/01/11 03:18:43;;;;;;;5.53;3.25;;;21.20;52.30;;;;;;5097895;28;20039;-74
2022/01/11 03:21:09;;;;;;;6.97;4.70;;;21.10;52.50;;;;;;5097800;28;20036;-74
2022/01/11 03:23:36;;;;;;;6.57;4.25;;;21.20;52.00;;;;;;5098461;28;20040;-75
2022/01/11 03:26:03;;;;;;;6.70;4.65;;;21.10;52.00;;;;;;5097699;28;20041;-74
2022/01/11 03:28:31;;;;;;;6.38;4.00;;;21.00;52.10;;;;;;5096600;28;20067;-74
2022/01/11 03:30:58;;;;;;;9.40;4.78;;;21.10;52.30;;;;;;5098347;28;20112;-74
2022/01/11 03:33:26;;;;;;;6.40;4.72;;;20.90;52.30;;;;;;5097505;28;20044;-74
2022/01/11 03:35:52;;;;;;;6.97;4.25;;;20.80;52.30;;;;;;5097431;28;20064;-74
2022/01/11 03:38:18;;;;;;;5.75;3.97;;;21.00;52.50;;;;;;5097313;28;20033;-74
2022/01/11 03:40:51;;;;;;;6.03;4.57;;;20.80;52.20;;;;;;5097518;28;20043;-74
2022/01/11 03:43:21;;;;;;;5.82;4.13;;;20.80;52.30;;;;;;5097254;28;20047;-74
2022/01/11 03:45:49;;;;;;;4.70;3.70;;;20.80;52.30;;;;;;5097293;28;20099;-74
2022/01/11 03:48:18;;;;;;;3.78;3.22;;;20.80;52.40;;;;;;5114192;28;20037;-74
2022/01/11 03:50:51;;;;;;;6.95;4.07;;;20.90;52.20;;;;;;5097177;28;20048;-74
2022/01/11 03:53:26;;;;;;;6.65;3.83;;;20.90;52.00;;;;;;5097106;28;20048;-74
2022/01/11 03:58:21;;;;;;;4.43;3.30;;;21.00;51.90;;;;;;5097139;28;20062;-74
2022/01/11 04:00:50;;;;;;;4.63;3.63;;;20.80;51.70;;;;;;5097145;28;20094;-74
2022/01/11 04:03:17;;;;;;;4.38;3.08;;;20.80;51.90;;;;;;5096779;28;20052;-74
2022/01/11 04:05:46;;;;;;;3.58;3.20;;;20.80;52.20;;;;;;5096835;28;20105;-74
2022/01/11 04:08:12;;;;;;;4.32;3.38;;;20.80;52.00;;;;;;5096947;28;20144;-74
2022/01/11 04:10:38;;;;;;;5.70;3.38;;;20.70;52.00;;;;;;5080089;28;20044;-74
2022/01/11 04:13:04;;;;;;;4.80;3.67;;;20.80;51.90;;;;;;5097495;28;20040;-74
2022/01/11 04:15:31;;;;;;;4.95;3.63;;;20.80;51.70;;;;;;5113692;28;20088;-74
2022/01/11 04:17:58;;;;;;;6.28;3.35;;;20.90;51.90;;;;;;5096667;28;20044;-74
2022/01/11 04:20:24;;;;;;;5.40;3.45;;;20.80;51.80;;;;;;5096929;28;20040;-74
2022/01/11 04:22:51;;;;;;;3.20;2.40;;;20.80;51.60;;;;;;5097045;28;20037;-74
2022/01/11 04:25:18;;;;;;;5.88;3.95;;;20.90;51.80;;;;;;5097074;28;20063;-74
2022/01/11 04:27:44;;;;;;;5.57;3.78;;;20.90;51.60;;;;;;5097044;28;20068;-74
2022/01/11 04:30:12;;;;;;;8.63;4.53;;;21.00;51.40;;;;;;5096548;28;20070;-74
2022/01/11 04:32:38;;;;;;;5.15;3.40;;;21.00;51.30;;;;;;5096691;28;20059;-74
2022/01/11 04:35:08;;;;;;;6.60;3.35;;;21.10;51.20;;;;;;5096265;28;20047;-74
2022/01/11 04:37:35;;;;;;;3.78;2.67;;;21.20;51.10;;;;;;5096319;28;20036;-76
2022/01/11 04:40:01;;;;;;;5.57;2.83;;;21.20;51.00;;;;;;5096025;28;20032;-74
2022/01/11 04:42:32;;;;;;;3.90;2.92;;;21.40;50.90;;;;;;5096322;28;20041;-74
2022/01/11 04:44:58;;;;;;;4.68;3.08;;;21.40;50.70;;;;;;5095844;28;20044;-73
2022/01/11 04:47:26;;;;;;;4.00;3.38;;;21.50;50.50;;;;;;5097536;28;20097;-74
2022/01/11 04:49:52;;;;;;;3.75;3.03;;;21.30;50.70;;;;;;5096188;28;20040;-74
2022/01/11 04:52:19;;;;;;;3.85;3.17;;;21.40;51.00;;;;;;5096072;28;20039;-74
2022/01/11 04:54:45;;;;;;;4.20;2.58;;;21.20;51.00;;;;;;5096804;28;20033;-74
2022/01/11 04:57:11;;;;;;;2.50;2.30;;;21.30;51.40;;;;;;5096273;28;20032;-73
2022/01/11 04:59:37;;;;;;;4.05;3.25;;;21.20;51.10;;;;;;5096101;28;20032;-74
2022/01/11 05:02:04;;;;;;;4.60;2.45;;;21.10;51.10;;;;;;5096219;28;20052;-74
2022/01/11 05:04:31;;;;;;;4.20;3.08;;;21.10;51.40;;;;;;5095885;28;20041;-74
2022/01/11 05:06:58;;;;;;;4.70;3.28;;;21.00;51.60;;;;;;5094968;28;20066;-74
2022/01/11 05:09:25;;;;;;;3.58;2.70;;;21.00;51.40;;;;;;5095403;28;20040;-74
2022/01/11 05:11:51;;;;;;;3.42;2.45;;;21.00;51.80;;;;;;5095954;28;20051;-74
2022/01/11 05:14:18;;;;;;;2.20;2.00;;;20.90;51.90;;;;;;5094930;28;20059;-74
2022/01/11 05:16:48;;;;;;;3.50;2.95;;;21.00;51.90;;;;;;5095250;28;20084;-74
2022/01/11 05:19:14;;;;;;;2.90;2.60;;;21.10;51.70;;;;;;5095076;28;20044;-74
2022/01/11 05:21:43;;;;;;;5.85;2.88;;;21.00;51.70;;;;;;5095053;28;20037;-74
2022/01/11 05:24:10;;;;;;;4.10;2.75;;;21.00;51.40;;;;;;5095022;28;20060;-74
2022/01/11 05:26:37;;;;;;;5.57;2.67;;;21.00;51.60;;;;;;5111350;28;20040;-81
2022/01/11 05:29:04;;;;;;;3.88;2.80;;;21.20;54.10;;;;;;5077631;28;20068;-79
2022/01/11 05:31:32;;;;;;;3.53;2.95;;;21.60;53.40;;;;;;5094954;28;20048;-80
2022/01/11 05:33:59;;;;;;;4.35;3.17;;;21.70;55.80;;;;;;5095467;28;20062;-82
2022/01/11 05:36:25;;;;;;;5.00;4.03;;;21.90;52.20;;;;;;5078086;28;20036;-80
2022/01/11 05:38:51;;;;;;;4.60;3.28;;;22.20;50.70;;;;;;5095079;28;20035;-80
2022/01/11 05:41:18;;;;;;;5.05;3.38;;;22.10;46.80;;;;;;5094969;28;20062;-78
2022/01/11 05:43:44;;;;;;;3.70;3.10;;;22.00;45.80;;;;;;5094797;28;20036;-79
2022/01/11 05:46:11;;;;;;;4.20;3.00;;;22.00;44.20;;;;;;5094931;28;20032;-74
2022/01/11 05:48:38;;;;;;;4.03;3.08;;;22.00;39.90;;;;;;5095547;28;20053;-75
2022/01/11 05:51:04;;;;;;;3.85;2.85;;;22.10;42.30;;;;;;5096887;28;20040;-74
2022/01/11 05:53:32;;;;;;;3.25;2.35;;;22.30;37.30;;;;;;5098777;28;20104;-75
2022/01/11 05:55:58;;;;;;;3.55;2.72;;;22.20;38.00;;;;;;5098653;28;20043;-74
2022/01/11 05:58:24;;;;;;;4.30;2.60;;;22.00;38.70;;;;;;5098677;28;20059;-75
2022/01/11 06:00:51;;;;;;;3.10;2.47;;;22.00;38.30;;;;;;5098554;28;20047;-75
2022/01/11 06:03:19;;;;;;;3.22;2.55;;;22.00;38.00;;;;;;5098395;28;20108;-73
2022/01/11 06:05:48;;;;;;;3.47;1.77;;;21.80;36.50;;;;;;5098618;28;20043;-71
2022/01/11 06:08:17;;;;;;;2.42;1.85;;;21.80;42.80;;;;;;5098376;28;20767;-72
2022/01/11 06:10:47;;;;;;;2.53;2.13;;;21.90;40.20;;;;;;5098282;28;20041;-73
2022/01/11 06:13:17;;;;;;;5.00;2.40;;;21.90;39.10;;;;;;5085038;28;20033;-74
2022/01/11 06:15:44;;;;;;;4.03;3.00;;;21.90;37.30;;;;;;5082486;28;20043;-74
2022/01/11 06:18:12;;;;;;;4.78;2.80;;;21.70;37.70;;;;;;5077268;28;20039;-74
2022/01/11 06:20:51;;;;;;;3.85;2.67;;;21.70;36.30;;;;;;5078354;28;20100;-75
2022/01/11 06:23:18;;;;;;;3.78;2.88;;;21.70;35.70;;;;;;5061229;28;20053;-74
2022/01/11 06:25:43;;;;;;;4.45;2.80;;;21.60;34.90;;;;;;5078058;28;20048;-76
2022/01/11 06:28:10;;;;;;;4.13;3.72;;;21.80;47.80;;;;;;5078084;28;20108;-75
2022/01/11 06:30:36;;;;;;;5.30;3.75;;;21.90;50.90;;;;;;5077393;28;20056;-75
2022/01/11 06:33:03;;;;;;;5.75;3.70;;;21.80;51.60;;;;;;5087140;28;20048;-73
2022/01/11 06:35:30;;;;;;;5.28;3.42;;;21.80;51.70;;;;;;5081032;28;20063;-72
2022/01/11 06:37:56;;;;;;;7.30;3.90;;;21.60;52.80;;;;;;5098164;28;20044;-75
2022/01/11 06:40:22;;;;;;;4.55;3.47;;;21.60;52.90;;;;;;5081059;28;20037;-74
2022/01/11 06:42:53;;;;;;;4.10;3.08;;;21.70;53.10;;;;;;5081220;28;20032;-75
2022/01/11 06:45:24;;;;;;;5.00;2.83;;;21.60;52.90;;;;;;5097827;28;20074;-75
2022/01/11 06:47:53;;;;;;;4.03;3.38;;;21.50;54.40;;;;;;5097866;28;20049;-74
2022/01/11 06:50:20;;;;;;;5.18;3.28;;;21.40;54.60;;;;;;5079935;28;20059;-73
2022/01/11 06:52:47;;;;;;;5.30;4.07;;;21.50;54.40;;;;;;5079964;28;20078;-75
2022/01/11 06:55:14;;;;;;;5.20;3.58;;;21.40;56.90;;;;;;5079645;28;20032;-73
2022/01/11 06:57:41;;;;;;;3.58;2.78;;;21.50;56.10;;;;;;5079561;28;20111;-74
2022/01/11 07:00:09;;;;;;;3.88;2.58;;;21.40;56.30;;;;;;5080001;28;20028;-74
2022/01/11 07:02:39;;;;;;;5.28;3.90;;;21.40;56.70;;;;;;5080860;28;20074;-75
2022/01/11 07:05:24;;;;;;;6.38;3.80;;;21.40;56.80;;;;;;5094994;28;20024;-76
2022/01/11 07:07:50;;;;;;;7.15;3.72;;;21.40;56.90;;;;;;5080292;28;20062;-73
2022/01/11 07:10:18;;;;;;;4.03;3.63;;;21.30;57.30;;;;;;5080162;28;20056;-74
2022/01/11 07:12:45;;;;;;;5.85;3.28;;;21.40;57.60;;;;;;5096534;28;20032;-75
2022/01/11 07:15:11;;;;;;;6.07;4.10;;;21.30;57.50;;;;;;5080442;28;20055;-74
2022/01/11 07:17:38;;;;;;;6.88;4.13;;;21.40;57.90;;;;;;5096900;28;20039;-74
2022/01/11 07:20:05;;;;;;;5.72;3.53;;;21.40;57.90;;;;;;5078124;28;20028;-73
2022/01/11 07:22:33;;;;;;;7.65;4.25;;;21.40;58.10;;;;;;5100553;28;20035;-72
2022/01/11 07:24:59;;;;;;;3.80;2.45;;;21.40;57.80;;;;;;5100413;28;20031;-72
2022/01/11 07:27:26;;;;;;;6.28;4.43;;;21.20;58.50;;;;;;5116970;28;20036;-73
2022/01/11 07:29:52;;;;;;;4.95;3.08;;;21.30;58.60;;;;;;5100513;28;20044;-74
2022/01/11 07:32:19;;;;;;;7.07;4.07;;;21.20;59.20;;;;;;5080738;28;20057;-72
2022/01/11 07:34:45;;;;;;;6.15;4.50;;;21.20;59.10;;;;;;5093255;28;20048;-72
2022/01/11 07:37:11;;;;;;;6.55;3.97;;;21.20;59.80;;;;;;5093338;28;20041;-71
2022/01/11 07:39:41;;;;;;;5.72;4.05;;;21.10;59.80;;;;;;5093472;28;20055;-72
2022/01/11 07:42:08;;;;;;;6.15;3.80;;;21.00;60.40;;;;;;5092783;28;20078;-72
2022/01/11 07:44:54;;;;;;;5.07;3.95;;;21.00;60.20;;;;;;5076451;28;20044;-74
2022/01/11 07:47:22;;;;;;;4.65;3.78;;;21.00;60.80;;;;;;5076381;28;20069;-73
2022/01/11 07:49:48;;;;;;;6.28;4.10;;;20.90;60.60;;;;;;5059863;28;20041;-74
2022/01/11 07:52:16;;;;;;;3.78;2.95;;;20.80;61.50;;;;;;5076400;28;20036;-74
2022/01/11 07:54:44;;;;;;;5.57;3.95;;;20.90;61.30;;;;;;5076033;28;20114;-73
2022/01/11 07:57:14;;;;;;;4.95;3.47;;;20.90;60.60;;;;;;5076265;28;20037;-74
2022/01/11 07:59:41;;;;;;;5.70;3.45;;;20.80;60.70;;;;;;5076346;28;20041;-73
2022/01/11 08:02:07;;;;;;;5.72;3.72;;;20.90;61.20;;;;;;5109848;28;20040;-72
2022/01/11 08:04:35;;;;;;;4.18;3.45;;;20.90;60.70;;;;;;5109498;28;20041;-72
2022/01/11 08:07:03;;;;;;;6.85;4.07;;;20.90;60.40;;;;;;5091475;28;20056;-73
2022/01/11 08:09:42;;;;;;;5.28;4.07;;;21.00;59.90;;;;;;5077097;28;20067;-72
2022/01/11 08:12:09;;;;;;;8.15;4.88;;;21.00;59.20;;;;;;5095092;28;20028;-74
2022/01/11 08:14:38;;;;;;;7.90;4.43;;;20.90;59.90;;;;;;5095217;28;20055;-73
2022/01/11 08:17:06;;;;;;;4.35;3.70;;;21.00;59.80;;;;;;5095656;28;20044;-73
2022/01/11 08:19:32;;;;;;;7.72;4.00;;;20.90;60.20;;;;;;5095855;28;20067;-72
2022/01/11 08:22:00;;;;;;;8.40;4.68;;;21.00;62.00;;;;;;5095968;28;20047;-71
2022/01/11 08:24:39;;;;;;;6.05;3.45;;;21.00;61.10;;;;;;5095514;28;20047;-71
2022/01/11 08:27:06;;;;;;;8.30;4.05;;;21.10;60.90;;;;;;5095617;28;20109;-72
2022/01/11 08:29:33;;;;;;;5.63;4.22;;;21.10;60.40;;;;;;5095484;28;20094;-71
2022/01/11 08:32:01;;;;;;;6.40;4.78;;;21.00;59.80;;;;;;5095241;28;20079;-73
2022/01/11 08:34:29;;;;;;;6.28;4.50;;;20.90;60.90;;;;;;5095716;28;20088;-72
2022/01/11 08:36:56;;;;;;;7.60;4.80;;;20.80;60.30;;;;;;5094511;28;20066;-72
2022/01/11 08:39:24;;;;;;;6.43;3.92;;;21.00;59.40;;;;;;5095091;28;20040;-72
2022/01/11 08:41:52;;;;;;;6.50;3.75;;;20.90;59.60;;;;;;5095634;28;20071;-72
2022/01/11 08:44:20;;;;;;;4.85;3.20;;;21.00;59.70;;;;;;5095380;28;20056;-72
2022/01/11 08:46:46;;;;;;;6.03;4.00;;;20.80;60.00;;;;;;5095013;28;20079;-72
2022/01/11 08:49:19;;;;;;;6.63;4.10;;;20.90;59.60;;;;;;5095259;28;20571;-73
2022/01/11 08:51:45;;;;;;;4.00;2.90;;;20.80;59.20;;;;;;5079307;28;20103;-71
2022/01/11 08:54:14;;;;;;;3.83;3.10;;;20.80;60.20;;;;;;5074836;28;20041;-71
2022/01/11 08:56:42;;;;;;;5.72;3.50;;;20.80;59.50;;;;;;5075212;28;20036;-71
2022/01/11 08:59:09;;;;;;;5.05;2.17;;;20.70;59.50;;;;;;5075108;28;20029;-71
2022/01/11 09:01:37;;;;;;;4.13;2.42;;;20.90;60.80;;;;;;5108312;28;20093;-65
2022/01/11 09:04:07;;;;;;;2.50;2.15;;;21.10;59.50;;;;;;5075297;28;20037;-75
2022/01/11 09:06:44;;;;;;;2.38;1.52;;;21.20;56.50;;;;;;5108608;28;20044;-73
2022/01/11 09:09:12;;;;;;;6.60;3.90;;;21.30;53.10;;;;;;5075387;28;20036;-75
2022/01/11 09:11:38;;;;;;;5.43;2.70;;;21.30;49.50;;;;;;5091508;28;20067;-71
2022/01/11 09:14:05;;;;;;;6.45;3.00;;;21.40;46.00;;;;;;5108489;28;20045;-76
2022/01/11 09:16:31;;;;;;;4.80;3.33;;;21.50;43.70;;;;;;5075067;28;20044;-77
2022/01/11 09:18:57;;;;;;;7.68;4.00;;;21.50;41.30;;;;;;5074813;28;20037;-71
2022/01/11 09:21:24;;;;;;;6.05;4.57;;;21.40;39.30;;;;;;5074894;28;20056;-72
2022/01/11 09:23:52;;;;;;;5.03;4.13;;;21.50;39.00;;;;;;5072667;28;20044;-74
2022/01/11 09:26:21;;;;;;;5.47;4.20;;;21.30;38.90;;;;;;5076443;28;20071;-72
2022/01/11 09:28:52;;;;;;;3.45;3.13;;;21.40;39.90;;;;;;5095461;28;20041;-72
2022/01/11 09:31:19;;;;;;;6.75;4.55;;;21.20;40.30;;;;;;5078259;28;20068;-73
2022/01/11 09:33:46;;;;;;;4.95;3.28;;;21.10;42.30;;;;;;5095086;28;20044;-72
2022/01/11 09:36:12;;;;;;;5.03;3.53;;;21.10;43.00;;;;;;5078878;28;20036;-72
2022/01/11 09:38:38;;;;;;;6.78;3.97;;;21.00;44.60;;;;;;5095413;28;20033;-75
2022/01/11 09:41:04;;;;;;;8.77;4.60;;;21.00;45.60;;;;;;5078702;28;20041;-73
2022/01/11 09:43:37;;;;;;;10.35;3.88;;;20.80;41.40;;;;;;5078840;28;20037;-73
2022/01/11 09:46:06;;;;;;;4.43;3.03;;;21.00;38.80;;;;;;5078565;28;20080;-72
2022/01/11 09:48:34;;;;;;;3.35;3.05;;;21.30;36.00;;;;;;5077561;28;20412;-72
2022/01/11 09:51:01;;;;;;;6.18;3.38;;;21.50;37.70;;;;;;5094929;28;20047;-72
2022/01/11 09:53:28;;;;;;;4.50;3.10;;;21.40;36.30;;;;;;5094987;28;20091;-71
2022/01/11 09:55:57;;;;;;;3.67;3.00;;;21.60;37.10;;;;;;5095414;28;20040;-71
2022/01/11 09:58:27;;;;;;;5.75;3.53;;;21.70;34.60;;;;;;5078297;28;20147;-72
2022/01/11 10:00:53;;;;;;;3.40;3.10;;;21.70;36.50;;;;;;5078715;28;20037;-72
2022/01/11 10:04:01;;;;;;;4.00;2.90;;;21.80;34.70;;;;;;5079000;28;20394;-73
2022/01/11 10:06:41;;;;;;;4.10;3.30;;;21.90;37.00;;;;;;5094853;28;20108;-71
2022/01/11 10:09:28;;;;;;;6.78;3.08;;;22.00;33.40;;;;;;5078110;28;20049;-72
2022/01/11 10:11:57;;;;;;;6.40;3.40;;;22.00;33.40;;;;;;5078391;28;20128;-75
2022/01/11 10:14:29;;;;;;;5.68;3.30;;;22.00;32.40;;;;;;5094586;28;20067;-72
2022/01/11 10:17:21;;;;;;;2.95;2.58;;;22.00;31.20;;;;;;5078319;28;20056;-73
2022/01/11 10:20:05;;;;;;;10.85;2.80;;;22.10;31.60;;;;;;5078821;28;20037;-71
2022/01/11 10:22:43;;;;;;;7.85;3.30;;;22.00;32.90;;;;;;5094846;28;20101;-72
2022/01/11 10:25:10;;;;;;;4.93;3.85;;;22.10;30.80;;;;;;5061368;28;20052;-73
2022/01/11 10:27:38;;;;;;;16.25;3.83;;;22.30;31.50;;;;;;5077723;28;20043;-71
2022/01/11 10:30:10;;;;;;;3.15;2.53;;;22.20;33.80;;;;;;5077932;28;20041;-71
2022/01/11 10:32:42;;;;;;;5.38;2.72;;;22.40;37.00;;;;;;5096365;28;20060;-72
2022/01/11 10:35:42;;;;;;;5.05;3.03;;;22.50;42.20;;;;;;5098049;28;20041;-73
2022/01/11 10:38:12;;;;;;;4.40;3.45;;;22.70;41.10;;;;;;5097062;28;20036;-73
2022/01/11 10:40:41;;;;;;;6.57;3.17;;;22.70;34.30;;;;;;5097680;28;20108;-73
2022/01/11 10:43:13;;;;;;;4.32;2.47;;;22.80;33.80;;;;;;5097600;28;20036;-73
2022/01/11 10:45:50;;;;;;;3.58;3.13;;;22.70;33.50;;;;;;5097594;28;20044;-74
2022/01/11 10:48:19;;;;;;;4.15;2.78;;;22.60;30.60;;;;;;5097544;28;20438;-72
2022/01/11 10:50:45;;;;;;;5.55;2.63;;;22.70;36.80;;;;;;5098105;28;20056;-72
2022/01/11 10:53:49;;;;;;;3.90;2.40;;;22.80;34.90;;;;;;5097492;28;20040;-71
2022/01/11 10:56:16;;;;;;;2.97;2.67;;;22.80;35.40;;;;;;5097211;28;20047;-73
2022/01/11 10:59:08;;;;;;;3.38;2.70;;;22.90;49.90;;;;;;5097367;28;20059;-72
2022/01/11 11:01:35;;;;;;;3.60;2.80;;;23.00;48.10;;;;;;5097810;28;20040;-73
2022/01/11 11:04:04;;;;;;;3.83;2.72;;;22.80;47.40;;;;;;5096978;28;20048;-73
2022/01/11 11:06:30;;;;;;;2.22;1.70;;;22.60;49.20;;;;;;5097609;28;20037;-73
2022/01/11 11:08:56;;;;;;;4.38;2.85;;;22.60;49.80;;;;;;5097130;28;20106;-72
2022/01/11 11:11:27;;;;;;;4.00;2.35;;;22.50;48.10;;;;;;5097505;28;20072;-70
2022/01/11 11:14:12;;;;;;;4.13;3.10;;;22.60;33.90;;;;;;5097970;28;20037;-72
2022/01/11 11:16:44;;;;;;;4.03;3.17;;;22.70;41.60;;;;;;5097221;28;20032;-73
2022/01/11 11:19:13;;;;;;;3.38;2.70;;;22.60;45.60;;;;;;5097009;28;20043;-72
2022/01/11 11:21:51;;;;;;;3.88;3.15;;;22.40;48.80;;;;;;5097424;28;20175;-72
2022/01/11 11:24:18;;;;;;;4.10;3.15;;;22.10;50.80;;;;;;5097696;28;20135;-72
2022/01/11 11:26:48;;;;;;;6.40;3.28;;;22.00;51.50;;;;;;5097704;28;20046;-72
2022/01/11 11:29:15;;;;;;;4.53;3.13;;;21.90;52.00;;;;;;5097822;28;20036;-73
2022/01/11 11:31:41;;;;;;;4.65;2.65;;;21.90;53.40;;;;;;5097395;28;20060;-73
2022/01/11 11:34:09;;;;;;;3.65;2.78;;;22.00;52.50;;;;;;5096487;28;20047;-72
2022/01/11 11:36:38;;;;;;;5.22;3.13;;;22.00;53.40;;;;;;5097485;28;20039;-72
2022/01/11 11:39:19;;;;;;;4.82;3.80;;;21.90;53.80;;;;;;5097590;28;20044;-73
2022/01/11 11:41:53;;;;;;;4.40;3.08;;;21.90;52.90;;;;;;5097666;28;20044;-72
2022/01/11 11:44:26;;;;;;;4.25;3.10;;;22.00;54.00;;;;;;5097273;28;20044;-72
2022/01/11 11:47:06;;;;;;;4.35;3.05;;;22.00;53.90;;;;;;5097346;28;20040;-72
2022/01/11 11:49:49;;;;;;;2.75;2.28;;;21.90;54.90;;;;;;5096515;28;20063;-72
2022/01/11 11:52:44;;;;;;;3.95;2.97;;;21.70;55.10;;;;;;5097281;28;20040;-73
2022/01/11 11:55:24;;;;;;;3.92;3.03;;;21.70;55.70;;;;;;5096958;28;20036;-72
2022/01/11 11:58:01;;;;;;;4.55;3.30;;;21.60;55.90;;;;;;5096639;28;20036;-72
2022/01/11 12:00:36;;;;;;;2.72;2.47;;;21.70;55.80;;;;;;5097083;28;20063;-73
2022/01/11 12:03:25;;;;;;;3.50;2.78;;;21.60;56.20;;;;;;5097158;28;20083;-73
2022/01/11 12:05:55;;;;;;;3.22;2.78;;;21.60;56.20;;;;;;5096822;28;20044;-72
2022/01/11 12:08:36;;;;;;;3.92;3.17;;;21.60;55.80;;;;;;5093834;28;20048;-71
2022/01/11 12:11:04;;;;;;;4.25;3.00;;;21.40;56.40;;;;;;5096226;28;20036;-71
2022/01/11 12:13:52;;;;;;;5.85;3.28;;;21.30;55.90;;;;;;5096684;28;20040;-71
2022/01/11 12:16:26;;;;;;;4.03;3.58;;;21.40;56.20;;;;;;5095805;28;20039;-76
2022/01/11 12:19:00;;;;;;;3.50;2.57;;;21.40;56.50;;;;;;5091016;28;20059;-72
2022/01/11 12:21:28;;;;;;;3.97;2.75;;;21.50;55.40;;;;;;5075464;28;20282;-72
2022/01/11 12:23:57;;;;;;;4.22;3.47;;;21.40;55.90;;;;;;5075701;28;20239;-72
2022/01/11 12:26:28;;;;;;;3.58;2.50;;;21.60;58.00;;;;;;5076150;28;20045;-70
2022/01/11 12:29:10;;;;;;;3.97;3.58;;;21.60;57.50;;;;;;5075369;28;20044;-71
2022/01/11 12:31:45;;;;;;;3.88;3.30;;;21.60;57.30;;;;;;5085498;28;20070;-70
2022/01/11 12:34:13;;;;;;;5.50;3.45;;;21.70;54.80;;;;;;5095810;28;20032;-71
2022/01/11 12:36:58;;;;;;;5.50;2.60;;;21.80;57.40;;;;;;5078826;28;20037;-70
2022/01/11 12:39:28;;;;;;;3.28;2.67;;;21.70;57.00;;;;;;5095818;28;20060;-71
2022/01/11 12:41:55;;;;;;;3.70;2.40;;;21.70;56.80;;;;;;5096386;28;20044;-72
2022/01/11 12:47:05;;;;;;;4.38;2.65;;;21.60;57.80;;;;;;5078914;28;20068;-71
2022/01/11 12:49:32;;;;;;;3.72;2.92;;;21.70;57.60;;;;;;5096467;28;20049;-70
2022/01/11 12:52:09;;;;;;;3.03;2.05;;;21.70;57.50;;;;;;5088604;28;20040;-70
2022/01/11 12:54:47;;;;;;;3.78;2.70;;;21.80;57.40;;;;;;5062332;28;20047;-70
2022/01/11 12:57:18;;;;;;;2.65;2.00;;;21.90;56.70;;;;;;5075483;28;20043;-70
2022/01/11 12:59:58;;;;;;;2.83;2.17;;;21.90;56.70;;;;;;5075742;28;20051;-70
2022/01/11 13:02:27;;;;;;;1.92;1.73;;;21.90;57.00;;;;;;5075750;28;20096;-69
2022/01/11 13:04:55;;;;;;;2.60;2.10;;;21.90;57.10;;;;;;5075517;28;20052;-70